Time;durP1;ratioP1;P1;durP2;ratioP2;P2;SDS_P1;SDS_P2;PMS_P1;PMS_P2;Temp;Humidity;BMP_temperature;BMP_pressure;BME280_temperature;BME280_humidity;BME280_pressure;Samples;Min_cycle;Max_cycle;Signal;HPM_P1;HPM_P2
2022/07/13 00:04:50;;;;;;;9.25;5.82;;;;;;;17.83;91.03;101977.59;10494837;28;20086;-75
2022/07/13 00:09:51;;;;;;;9.68;5.95;;;;;;;17.73;91.94;101968.41;10567806;28;20051;-74
2022/07/13 00:14:51;;;;;;;7.75;5.50;;;;;;;17.72;93.66;101959.59;10569529;28;20055;-74
2022/07/13 00:19:52;;;;;;;6.50;5.22;;;;;;;17.65;94.93;101957.56;10494109;28;20040;-74
2022/07/13 00:24:52;;;;;;;8.50;6.40;;;;;;;17.59;95.44;101947.66;10492493;28;20043;-75
2022/07/13 00:29:53;;;;;;;9.15;6.00;;;;;;;17.56;96.65;101952.84;10508031;28;20064;-75
2022/07/13 00:34:53;;;;;;;11.05;7.38;;;;;;;17.58;97.01;101958.19;10557263;28;20396;-75
2022/07/13 00:39:54;;;;;;;8.80;6.38;;;;;;;17.55;97.33;101964.25;10508281;28;20028;-74
2022/07/13 00:44:54;;;;;;;10.80;7.25;;;;;;;17.51;97.89;101956.19;10498602;28;20036;-74
2022/07/13 00:49:55;;;;;;;12.45;7.25;;;;;;;17.53;96.86;101936.84;10529782;28;20057;-77
2022/07/13 00:54:56;;;;;;;11.27;7.45;;;;;;;17.66;94.58;101910.81;10543503;28;20078;-74
2022/07/13 00:59:56;;;;;;;10.98;6.38;;;;;;;17.71;93.79;101918.09;10491245;28;20499;-74
2022/07/13 01:04:57;;;;;;;14.60;7.18;;;;;;;17.71;93.41;101907.50;10492764;28;20411;-75
2022/07/13 01:09:58;;;;;;;7.72;6.57;;;;;;;17.78;93.25;101905.06;10525463;28;20448;-74
2022/07/13 01:14:58;;;;;;;13.55;6.78;;;;;;;17.86;92.53;101898.28;10490807;28;20031;-74
2022/07/13 01:19:59;;;;;;;11.70;6.40;;;;;;;17.84;93.37;101898.22;10549812;28;20559;-75
2022/07/13 01:24:59;;;;;;;13.82;7.00;;;;;;;17.80;92.73;101883.06;10546881;28;20059;-75
2022/07/13 01:30:00;;;;;;;11.63;7.65;;;;;;;17.80;92.06;101875.13;10549048;28;20032;-75
2022/07/13 01:35:00;;;;;;;16.98;7.88;;;;;;;17.80;92.79;101876.88;10533674;28;20380;-75
2022/07/13 01:40:01;;;;;;;12.45;6.75;;;;;;;17.78;92.70;101875.94;10507066;28;20064;-75
2022/07/13 01:45:02;;;;;;;13.20;6.57;;;;;;;17.77;92.65;101867.06;10505315;28;20127;-76
2022/07/13 01:50:02;;;;;;;10.98;6.63;;;;;;;17.73;93.45;101866.09;10525279;28;20043;-74
2022/07/13 01:55:04;;;;;;;10.55;7.38;;;;;;;17.72;92.99;101858.06;10547932;28;20082;-75
2022/07/13 02:00:09;;;;;;;13.45;8.70;;;;;;;17.67;92.13;101857.03;10540195;28;20070;-74
2022/07/13 02:05:10;;;;;;;15.00;8.32;;;;;;;17.65;91.47;101851.69;10523752;28;20047;-74
2022/07/13 02:10:11;;;;;;;12.43;8.05;;;;;;;17.70;91.55;101854.47;10548752;28;20388;-74
2022/07/13 02:15:12;;;;;;;11.70;7.07;;;;;;;17.73;91.56;101858.16;10499060;28;20103;-75
2022/07/13 02:20:12;;;;;;;27.70;8.65;;;;;;;17.69;92.56;101858.88;10523681;28;20117;-74
2022/07/13 02:25:13;;;;;;;13.15;7.65;;;;;;;17.67;93.19;101854.38;10505803;28;20050;-74
2022/07/13 02:30:14;;;;;;;13.10;8.38;;;;;;;17.72;92.61;101853.69;10531475;28;20082;-75
2022/07/13 02:35:14;;;;;;;11.40;7.07;;;;;;;17.74;92.24;101857.28;10496848;28;20041;-74
2022/07/13 02:40:15;;;;;;;13.10;7.82;;;;;;;17.71;92.42;101850.97;10488988;28;20110;-74
2022/07/13 02:45:15;;;;;;;12.98;7.57;;;;;;;17.69;92.24;101850.94;10504546;28;20036;-75
2022/07/13 02:50:16;;;;;;;11.32;7.32;;;;;;;17.63;92.67;101850.75;10555562;28;20059;-75
2022/07/13 02:55:17;;;;;;;12.43;7.65;;;;;;;17.62;93.09;101833.06;10505325;28;20499;-74
2022/07/13 03:00:17;;;;;;;15.35;7.82;;;;;;;17.57;94.02;101827.59;10512355;28;20071;-74
2022/07/13 03:05:18;;;;;;;13.73;8.75;;;;;;;17.54;94.00;101829.25;10559387;28;20394;-74
2022/07/13 03:10:18;;;;;;;11.57;7.40;;;;;;;17.49;94.25;101831.72;10571994;28;20027;-74
2022/07/13 03:15:19;;;;;;;14.93;9.38;;;;;;;17.44;94.20;101828.00;10544466;28;20519;-75
2022/07/13 03:20:19;;;;;;;13.73;8.40;;;;;;;17.46;94.37;101829.88;10529981;28;20079;-74
2022/07/13 03:25:20;;;;;;;13.50;6.68;;;;;;;17.50;94.20;101835.28;10529666;28;20042;-75
2022/07/13 03:30:21;;;;;;;11.20;8.05;;;;;;;17.53;93.41;101827.44;10534111;28;20039;-75
2022/07/13 03:35:22;;;;;;;11.50;7.28;;;;;;;17.59;92.41;101825.00;10526007;28;20032;-74
2022/07/13 03:40:22;;;;;;;13.32;7.85;;;;;;;17.61;91.75;101808.31;10512760;28;20039;-75
2022/07/13 03:45:23;;;;;;;9.68;6.45;;;;;;;17.67;91.52;101819.97;10485188;28;20509;-74
2022/07/13 03:50:23;;;;;;;11.45;7.50;;;;;;;17.64;91.47;101825.16;10469312;28;24072;-74
2022/07/13 03:55:24;;;;;;;12.07;7.43;;;;;;;17.64;91.47;101818.13;10515180;28;20468;-75
2022/07/13 04:00:24;;;;;;;10.20;5.82;;;;;;;17.66;91.17;101821.72;10552250;28;20045;-74
2022/07/13 04:05:25;;;;;;;11.65;8.20;;;;;;;17.67;91.15;101807.63;10542776;28;20398;-74
2022/07/13 04:10:26;;;;;;;12.20;6.18;;;;;;;17.71;91.09;101804.25;10527882;28;20032;-75
2022/07/13 04:15:26;;;;;;;13.40;6.93;;;;;;;17.76;90.70;101809.69;10542576;28;20092;-74
2022/07/13 04:20:27;;;;;;;12.40;9.15;;;;;;;17.77;90.83;101806.19;10526372;28;20040;-74
2022/07/13 04:25:27;;;;;;;9.32;6.00;;;;;;;17.81;91.38;101808.09;10551031;28;20110;-75
2022/07/13 04:30:28;;;;;;;12.73;7.13;;;;;;;17.83;90.88;101803.72;10532091;28;20039;-74
2022/07/13 04:35:28;;;;;;;10.30;6.95;;;;;;;17.87;91.80;101805.63;10549506;28;20052;-74
2022/07/13 04:40:29;;;;;;;8.73;6.13;;;;;;;17.97;92.06;101798.91;10523643;28;20788;-75
2022/07/13 04:45:32;;;;;;;9.20;6.28;;;;;;;18.12;90.45;101795.84;10534302;28;20127;-74
2022/07/13 04:50:32;;;;;;;;;;;;;;;18.22;90.93;101798.78;10549334;28;20042;-73
2022/07/13 04:55:32;;;;;;;10.03;7.00;;;;;;;18.28;91.10;101793.69;10529219;28;20294;-74
2022/07/13 05:00:34;;;;;;;9.18;5.18;;;;;;;18.37;89.91;101779.81;10566420;28;20301;-73
2022/07/13 05:05:34;;;;;;;11.25;5.47;;;;;;;18.56;85.45;101774.22;10546700;28;20118;-73
2022/07/13 05:10:35;;;;;;;11.82;6.68;;;;;;;18.67;88.33;101785.13;10520851;28;20051;-74
2022/07/13 05:15:36;;;;;;;9.20;5.70;;;;;;;18.75;88.24;101793.31;10490240;28;20032;-75
2022/07/13 05:20:36;;;;;;;10.20;5.50;;;;;;;18.86;86.50;101783.00;10504190;28;20067;-74
2022/07/13 05:25:37;;;;;;;9.57;4.82;;;;;;;19.04;86.08;101780.00;10519987;28;20492;-75
2022/07/13 05:30:40;;;;;;;9.48;5.72;;;;;;;19.23;84.81;101778.72;10548383;28;20048;-74
2022/07/13 05:35:40;;;;;;;8.10;5.50;;;;;;;19.41;84.22;101785.38;10488691;28;20051;-76
2022/07/13 05:40:41;;;;;;;31.60;23.77;;;;;;;19.61;82.05;101773.50;10519575;28;20123;-75
2022/07/13 05:45:41;;;;;;;8.95;5.35;;;;;;;19.93;78.19;101775.19;10470122;28;20128;-76
2022/07/13 05:50:42;;;;;;;10.77;7.63;;;;;;;20.27;76.71;101773.28;10513930;28;20119;-76
2022/07/13 05:55:42;;;;;;;6.70;3.80;;;;;;;20.53;75.71;101778.25;10522037;28;20513;-75
2022/07/13 06:00:43;;;;;;;8.88;4.22;;;;;;;20.79;73.53;101780.59;10528064;28;20130;-75
2022/07/13 06:05:44;;;;;;;10.47;5.67;;;;;;;20.81;73.49;101773.53;10527435;28;20550;-76
2022/07/13 06:10:44;;;;;;;5.72;4.07;;;;;;;20.91;75.37;101774.59;10476982;28;20123;-75
2022/07/13 06:15:45;;;;;;;7.43;4.67;;;;;;;21.19;75.13;101780.44;10556120;28;20071;-76
2022/07/13 06:20:45;;;;;;;7.27;5.60;;;;;;;21.39;72.17;101778.16;10466325;28;20123;-75
2022/07/13 06:25:46;;;;;;;6.23;4.10;;;;;;;21.45;72.88;101772.94;10480812;28;20051;-75
2022/07/13 06:30:46;;;;;;;5.70;3.70;;;;;;;21.64;69.15;101787.47;10500446;28;20439;-76
2022/07/13 06:35:47;;;;;;;13.70;10.17;;;;;;;21.79;68.72;101773.50;10533102;28;20088;-76
2022/07/13 06:40:49;;;;;;;7.40;4.40;;;;;;;21.75;68.97;101778.75;10516818;28;20491;-77
2022/07/13 06:45:49;;;;;;;;;;;;;;;22.16;66.12;101783.81;10511833;28;20202;-74
2022/07/13 06:50:50;;;;;;;6.25;3.88;;;;;;;23.18;67.46;101777.03;10512811;28;19980;-75
2022/07/13 06:55:51;;;;;;;8.63;3.90;;;;;;;23.96;58.63;101774.13;10498219;28;20040;-75
2022/07/13 07:00:51;;;;;;;4.97;3.33;;;;;;;23.58;61.72;101779.22;10544902;28;20048;-77
2022/07/13 07:05:52;;;;;;;8.57;5.33;;;;;;;23.63;61.11;101792.59;10511613;28;20147;-79
2022/07/13 07:10:52;;;;;;;9.73;5.03;;;;;;;25.21;57.83;101785.34;10493723;28;20048;-75
2022/07/13 07:15:53;;;;;;;5.37;3.47;;;;;;;25.51;56.00;101788.97;10529243;28;20071;-76
2022/07/13 07:20:54;;;;;;;6.73;3.17;;;;;;;26.09;54.16;101780.88;10510292;28;20092;-77
2022/07/13 07:25:54;;;;;;;14.67;4.93;;;;;;;25.72;53.92;101770.22;10529881;28;20189;-76
2022/07/13 07:30:55;;;;;;;6.63;3.80;;;;;;;25.19;55.55;101773.75;10508801;28;20444;-75
2022/07/13 07:35:56;;;;;;;;;;;;;;;24.78;51.57;101779.91;10527732;28;20489;-74
2022/07/13 07:40:58;;;;;;;6.80;4.33;;;;;;;24.40;54.77;101781.53;10532978;28;19938;-76
2022/07/13 07:45:58;;;;;;;6.90;3.45;;;;;;;24.37;54.04;101778.84;10565323;28;20335;-76
2022/07/13 07:50:59;;;;;;;10.93;4.53;;;;;;;25.47;50.11;101779.16;10534090;28;20058;-74
2022/07/13 07:55:59;;;;;;;4.43;2.83;;;;;;;26.93;45.04;101762.66;10551674;28;20036;-76
2022/07/13 08:01:01;;;;;;;5.60;3.43;;;;;;;26.72;47.38;101758.28;10523703;28;20040;-75
2022/07/13 08:06:02;;;;;;;4.60;2.58;;;;;;;27.17;45.03;101766.06;10505149;28;20369;-75
2022/07/13 08:11:03;;;;;;;5.43;2.78;;;;;;;27.83;44.59;101761.94;10524445;28;20043;-75
2022/07/13 08:16:04;;;;;;;5.68;2.90;;;;;;;28.93;42.36;101757.00;10525557;28;20042;-76
2022/07/13 08:21:04;;;;;;;8.93;3.03;;;;;;;30.72;39.96;101756.44;10558861;28;20043;-76
2022/07/13 08:26:05;;;;;;;7.57;2.88;;;;;;;29.78;39.05;101767.31;10524475;28;20047;-77
2022/07/13 08:31:05;;;;;;;;;;;;;;;30.60;39.38;101763.91;10557308;28;20123;-78
2022/07/13 08:41:25;;;;;;;10.80;2.95;;;;;;;27.90;42.88;101769.94;10525783;28;20563;-77
2022/07/13 08:46:26;;;;;;;8.10;3.07;;;;;;;27.66;44.34;101770.19;10496441;28;20036;-77
2022/07/13 08:51:26;;;;;;;7.07;3.23;;;;;;;27.85;42.06;101770.00;10543012;28;20036;-77
2022/07/13 08:56:27;;;;;;;9.83;4.10;;;;;;;27.76;43.17;101762.91;10521250;28;20032;-75
2022/07/13 09:01:28;;;;;;;6.30;3.73;;;;;;;27.82;44.80;101768.22;10526264;28;20036;-76
2022/07/13 09:06:43;;;;;;;6.23;3.27;;;;;;;27.22;44.47;101774.09;10507747;28;20361;-76
2022/07/13 09:11:43;;;;;;;6.03;2.70;;;;;;;27.18;46.41;101778.59;10507733;28;20063;-76
2022/07/13 09:16:47;;;;;;;5.20;3.00;;;;;;;27.41;45.74;101778.44;10525092;28;20111;-75
2022/07/13 09:21:48;;;;;;;6.13;4.25;;;;;;;27.48;46.93;101778.38;10507418;28;20032;-75
2022/07/13 09:26:49;;;;;;;4.90;2.93;;;;;;;27.38;46.79;101770.38;10540839;28;20434;-76
2022/07/13 09:31:53;;;;;;;6.27;3.30;;;;;;;27.07;47.00;101772.41;10519743;28;20499;-77
2022/07/13 09:37:10;;;;;;;7.20;3.38;;;;;;;27.90;48.78;101769.94;10524350;28;20086;-75
2022/07/13 09:42:10;;;;;;;8.13;3.42;;;;;;;28.36;44.99;101773.94;10546186;28;20584;-75
2022/07/13 09:47:11;;;;;;;5.20;3.37;;;;;;;27.77;46.44;101777.25;10548466;28;20039;-76
2022/07/13 09:52:12;;;;;;;11.30;3.27;;;;;;;27.32;48.33;101786.56;10511752;28;20096;-75
2022/07/13 09:57:14;;;;;;;8.57;4.20;;;;;;;27.04;49.71;101784.09;10526961;28;20040;-75
2022/07/13 10:02:18;;;;;;;;;;;;;;;26.71;51.83;101787.81;10533976;28;20036;-74
2022/07/13 10:07:18;;;;;;;6.75;3.85;;;;;;;26.28;52.64;101783.53;10505010;28;19970;-74
2022/07/13 10:12:20;;;;;;;16.77;10.57;;;;;;;27.36;50.47;101795.47;10530413;28;20077;-75
2022/07/13 10:17:21;;;;;;;5.20;3.85;;;;;;;28.13;47.64;101781.34;10510627;28;20392;-75
2022/07/13 10:22:25;;;;;;;7.85;3.80;;;;;;;28.05;47.39;101779.66;10512325;28;20457;-75
2022/07/13 10:27:34;;;;;;;6.22;3.05;;;;;;;28.56;44.53;101784.44;10484685;28;20040;-75
2022/07/13 10:32:39;;;;;;;12.95;4.90;;;;;;;29.58;46.13;101785.63;10540328;28;20036;-75
2022/07/13 10:37:55;;;;;;;7.78;3.50;;;;;;;31.20;43.51;101777.84;10522794;28;20201;-76
2022/07/13 10:43:04;;;;;;;7.05;3.40;;;;;;;32.56;38.52;101790.44;10549347;28;20035;-75
2022/07/13 10:48:32;;;;;;;10.50;3.42;;;;;;;30.84;40.85;101791.28;10494359;28;20063;-76
2022/07/13 10:53:38;;;;;;;8.75;4.85;;;;;;;30.43;42.79;101793.06;10515910;28;20046;-76
2022/07/13 10:58:39;;;;;;;6.63;3.78;;;;;;;30.71;41.93;101782.56;10536383;28;20113;-76
2022/07/13 11:03:44;;;;;;;4.07;2.63;;;;;;;31.27;41.62;101778.56;10553346;28;20086;-77
2022/07/13 11:08:44;;;;;;;8.40;2.92;;;;;;;31.71;38.83;101788.28;10495761;28;20502;-77
2022/07/13 11:13:45;;;;;;;;;;;;;;;31.46;38.66;101787.13;10547179;28;20127;-76
2022/07/13 11:18:52;;;;;;;5.28;3.78;;;;;;;30.68;42.13;101788.03;10510425;28;20352;-75
2022/07/13 11:29:46;;;;;;;3.75;2.60;;;;;;;31.65;39.42;101781.22;10463040;28;20483;-76
2022/07/13 11:34:49;;;;;;;5.15;3.10;;;;;;;31.73;38.93;101776.50;10570474;28;20058;-75
2022/07/13 11:39:50;;;;;;;4.85;2.97;;;;;;;31.62;36.62;101773.19;10548910;28;20044;-75
2022/07/13 11:44:51;;;;;;;;;;;;;;;32.39;36.50;101761.19;10525693;28;20039;-75
2022/07/13 11:49:52;;;;;;;3.57;2.40;;;;;;;34.82;31.61;101765.44;10548520;28;19926;-75
2022/07/13 11:54:55;;;;;;;3.95;2.47;;;;;;;35.93;30.77;101751.66;10509065;28;20081;-76
2022/07/13 12:00:06;;;;;;;6.00;3.05;;;;;;;34.50;31.24;101757.63;10511750;28;20474;-75
2022/07/13 12:05:08;;;;;;;5.05;2.72;;;;;;;34.71;31.82;101749.56;10500503;28;20508;-75
2022/07/13 12:10:10;;;;;;;6.95;2.58;;;;;;;34.67;32.57;101751.53;10518962;28;20040;-75
2022/07/13 12:15:11;;;;;;;8.25;1.95;;;;;;;33.28;32.51;101753.88;10508509;28;20063;-77
2022/07/13 12:20:14;;;;;;;4.53;2.28;;;;;;;34.61;30.15;101745.44;10509318;28;20131;-77
2022/07/13 12:25:25;;;;;;;5.47;2.78;;;;;;;33.00;33.41;101743.94;10505019;28;20050;-76
2022/07/13 12:30:26;;;;;;;3.50;1.83;;;;;;;32.27;34.38;101755.16;10525397;28;20051;-76
2022/07/13 12:35:36;;;;;;;4.18;1.83;;;;;;;35.02;31.39;101752.91;10515436;28;20024;-76
2022/07/13 12:40:43;;;;;;;7.22;2.53;;;;;;;37.54;26.68;101753.03;10514756;28;20434;-77
2022/07/13 12:45:45;;;;;;;7.68;2.95;;;;;;;36.04;29.02;101742.13;10522477;28;20037;-77
2022/07/13 12:51:05;;;;;;;7.50;4.20;;;;;;;33.26;30.66;101750.31;10520031;28;20031;-76
2022/07/13 12:56:06;;;;;;;3.78;2.45;;;;;;;31.34;35.73;101755.84;10522426;28;20052;-77
2022/07/13 13:01:07;;;;;;;5.30;3.13;;;;;;;30.84;36.77;101757.97;10488157;28;20040;-77
2022/07/13 13:06:08;;;;;;;;;;;;;;;30.81;36.19;101749.91;10518441;28;20044;-77
2022/07/13 13:11:08;;;;;;;4.57;2.83;;;;;;;31.50;36.22;101750.03;10501250;28;19927;-77
2022/07/13 13:16:09;;;;;;;3.38;1.65;;;;;;;33.99;32.30;101764.06;10492362;28;20056;-77
2022/07/13 13:21:09;;;;;;;;;;;;;;;35.32;30.05;101769.72;10499655;28;20361;-77
2022/07/13 13:26:09;;;;;;;4.33;1.80;;;;;;;34.51;29.63;101764.81;10518092;28;20367;-77
2022/07/13 13:31:10;;;;;;;9.25;6.28;;;;;;;35.85;28.22;101775.63;10488667;28;20075;-75
2022/07/13 13:36:11;;;;;;;2.97;1.90;;;;;;;33.04;31.85;101768.19;10504418;28;20060;-77
2022/07/13 13:41:11;;;;;;;6.97;3.17;;;;;;;31.45;34.73;101768.22;10524251;28;20048;-77
2022/07/13 13:46:14;;;;;;;;;;;;;;;30.22;35.59;101764.69;10529265;28;20134;-76
2022/07/13 13:51:14;;;;;;;6.03;2.30;;;;;;;29.57;38.22;101773.06;10529667;28;19920;-77
2022/07/13 13:56:15;;;;;;;5.07;1.70;;;;;;;30.00;37.59;101776.81;10493822;28;20494;-76
2022/07/13 14:01:16;;;;;;;2.93;1.90;;;;;;;30.26;36.56;101769.09;10537513;28;20353;-75
2022/07/13 14:06:16;;;;;;;3.63;2.25;;;;;;;29.68;37.27;101774.69;10556823;28;20097;-75
2022/07/13 14:11:17;;;;;;;4.97;2.05;;;;;;;29.31;37.34;101781.59;10533750;28;20460;-76
2022/07/13 14:16:18;;;;;;;5.05;2.88;;;;;;;29.48;39.11;101781.31;10519576;28;20035;-75
2022/07/13 14:21:18;;;;;;;6.10;2.67;;;;;;;29.58;38.46;101768.56;10532512;28;20032;-75
2022/07/13 14:26:19;;;;;;;4.13;1.90;;;;;;;29.87;39.63;101768.03;10507099;28;20268;-76
2022/07/13 14:31:19;;;;;;;3.77;2.43;;;;;;;30.47;36.99;101773.16;10531130;28;20522;-75
2022/07/13 14:36:24;;;;;;;4.40;2.83;;;;;;;29.68;38.57;101777.38;10529574;28;20067;-74
2022/07/13 14:41:30;;;;;;;11.23;2.60;;;;;;;29.58;38.79;101785.63;10531200;28;20266;-75
2022/07/13 14:46:31;;;;;;;6.70;3.22;;;;;;;29.38;38.27;101776.97;10529349;28;20032;-74
2022/07/13 14:51:31;;;;;;;35.30;28.85;;;;;;;28.58;42.19;101774.53;10529760;28;20384;-75
2022/07/13 14:56:32;;;;;;;10.67;3.17;;;;;;;28.67;41.75;101781.59;10512395;28;20100;-76
2022/07/13 15:01:32;;;;;;;3.50;2.70;;;;;;;29.06;40.17;101781.06;10530133;28;20039;-75
2022/07/13 15:06:33;;;;;;;8.70;3.17;;;;;;;28.95;39.35;101781.25;10529452;28;20111;-74
2022/07/13 15:11:33;;;;;;;5.53;2.90;;;;;;;28.93;40.37;101775.88;10511918;28;20125;-75
2022/07/13 15:16:34;;;;;;;3.00;1.77;;;;;;;28.06;41.15;101774.22;10530595;28;20134;-75
2022/07/13 15:21:35;;;;;;;4.50;2.10;;;;;;;27.72;41.52;101774.59;10511921;28;20468;-75
2022/07/13 15:26:35;;;;;;;2.50;1.60;;;;;;;27.97;38.96;101772.56;10494604;28;20123;-75
2022/07/13 15:31:36;;;;;;;2.50;1.70;;;;;;;28.54;37.73;101765.63;10529422;28;20545;-75
2022/07/13 15:36:37;;;;;;;4.23;1.50;;;;;;;28.39;36.96;101769.38;10529320;28;20058;-75
2022/07/13 15:41:37;;;;;;;5.40;2.60;;;;;;;27.98;38.25;101765.34;10507627;28;20047;-76
2022/07/13 15:46:38;;;;;;;5.50;2.43;;;;;;;27.93;38.91;101764.50;10527858;28;20055;-76
2022/07/13 15:51:38;;;;;;;8.77;2.87;;;;;;;27.77;42.02;101770.06;10509140;28;20032;-76
2022/07/13 15:56:39;;;;;;;4.90;2.83;;;;;;;27.60;42.96;101774.69;10491851;28;20043;-76
2022/07/13 16:01:39;;;;;;;14.00;3.00;;;;;;;27.59;41.07;101772.91;10492523;28;20040;-76
2022/07/13 16:06:40;;;;;;;7.07;2.60;;;;;;;27.28;42.48;101774.06;10537894;28;20563;-76
2022/07/13 16:11:40;;;;;;;3.73;1.83;;;;;;;26.76;41.04;101773.47;10508033;28;20504;-75
2022/07/13 16:16:41;;;;;;;3.43;1.80;;;;;;;26.09;43.31;101783.56;10508450;28;20127;-74
2022/07/13 16:21:43;;;;;;;2.67;1.37;;;;;;;25.65;43.54;101785.41;10511616;28;20126;-75
2022/07/13 16:26:44;;;;;;;5.55;2.53;;;;;;;25.17;43.80;101786.25;10536531;28;20044;-75
2022/07/13 16:31:44;;;;;;;7.70;2.23;;;;;;;24.73;44.44;101773.66;10544651;28;20052;-75
2022/07/13 16:36:45;;;;;;;2.73;1.93;;;;;;;24.38;47.58;101775.28;10490807;28;20064;-74
2022/07/13 16:41:45;;;;;;;10.20;2.93;;;;;;;24.26;46.38;101765.41;10527314;28;20119;-75
2022/07/13 16:46:46;;;;;;;3.67;2.23;;;;;;;24.36;48.88;101762.78;10519529;28;20036;-75
2022/07/13 16:51:47;;;;;;;7.30;1.70;;;;;;;24.49;48.36;101757.50;10482116;28;20106;-75
2022/07/13 16:56:47;;;;;;;3.40;1.50;;;;;;;24.58;49.76;101759.31;10502961;28;20495;-76
2022/07/13 17:01:48;;;;;;;4.97;2.67;;;;;;;24.62;48.26;101755.75;10540482;28;20050;-75
2022/07/13 17:06:49;;;;;;;3.20;1.67;;;;;;;24.58;49.52;101767.31;10528388;28;20036;-75
2022/07/13 17:11:49;;;;;;;3.53;2.20;;;;;;;24.70;49.99;101749.53;10536044;28;20549;-75
2022/07/13 17:16:50;;;;;;;5.83;1.83;;;;;;;24.51;51.07;101760.16;10506278;28;20197;-75
2022/07/13 17:21:51;;;;;;;8.40;2.10;;;;;;;24.26;53.50;101752.03;10535253;28;20044;-74
2022/07/13 17:26:52;;;;;;;4.03;2.42;;;;;;;24.30;55.18;101756.50;10550619;28;20032;-73
2022/07/13 17:31:52;;;;;;;4.00;1.80;;;;;;;24.18;56.86;101762.72;10525108;28;20723;-74
2022/07/13 17:36:53;;;;;;;12.77;3.03;;;;;;;24.00;60.19;101757.25;10513645;28;20071;-74
2022/07/13 17:41:54;;;;;;;7.33;2.37;;;;;;;23.75;63.48;101755.28;10490333;28;20119;-73
2022/07/13 17:46:54;;;;;;;3.43;1.77;;;;;;;23.80;58.95;101762.44;10524621;28;20115;-74
2022/07/13 17:51:55;;;;;;;5.00;2.47;;;;;;;23.93;58.61;101747.38;10507208;28;20116;-74
2022/07/13 17:56:55;;;;;;;7.87;3.03;;;;;;;24.06;58.14;101741.25;10471634;28;20135;-74
2022/07/13 18:01:56;;;;;;;5.73;2.27;;;;;;;24.18;57.23;101733.28;10482562;28;20175;-74
2022/07/13 18:06:56;;;;;;;7.77;3.37;;;;;;;24.00;53.67;101739.44;10481731;28;20032;-74
2022/07/13 18:11:57;;;;;;;5.57;2.50;;;;;;;23.61;55.51;101739.16;10448832;28;20112;-74
2022/07/13 18:16:58;;;;;;;7.90;3.03;;;;;;;23.45;56.50;101739.94;10481705;28;20503;-74
2022/07/13 18:21:58;;;;;;;5.40;3.73;;;;;;;23.45;57.16;101743.47;10464663;28;20043;-75
2022/07/13 18:26:59;;;;;;;3.87;2.50;;;;;;;23.44;57.60;101743.47;10465318;28;20036;-74
2022/07/13 18:31:59;;;;;;;6.97;3.23;;;;;;;23.26;58.61;101737.09;10464798;28;20043;-74
2022/07/13 18:37:00;;;;;;;6.17;3.00;;;;;;;22.89;59.70;101739.38;10471425;28;20047;-74
2022/07/13 18:42:00;;;;;;;7.33;3.90;;;;;;;22.60;61.14;101742.63;10471967;28;20125;-74
2022/07/13 18:47:04;;;;;;;7.37;3.70;;;;;;;22.57;60.73;101747.94;10489161;28;20040;-75
2022/07/13 18:52:05;;;;;;;4.10;2.40;;;;;;;22.50;59.78;101749.63;10465205;28;20052;-74
2022/07/13 18:57:06;;;;;;;4.63;2.77;;;;;;;22.52;59.90;101762.97;10526088;28;20055;-73
2022/07/13 19:02:07;;;;;;;6.10;2.80;;;;;;;22.41;59.47;101758.38;10555692;28;20035;-74
2022/07/13 19:07:07;;;;;;;2.87;1.93;;;;;;;22.26;58.52;101763.50;10547051;28;20032;-74
2022/07/13 19:12:08;;;;;;;7.37;2.63;;;;;;;22.00;60.00;101766.72;10512225;28;20090;-74
2022/07/13 19:17:08;;;;;;;3.67;2.80;;;;;;;21.79;59.64;101767.25;10537974;28;20036;-74
2022/07/13 19:22:09;;;;;;;8.07;3.07;;;;;;;21.66;60.38;101779.50;10566870;28;20127;-74
2022/07/13 19:27:12;;;;;;;3.20;1.83;;;;;;;21.47;60.79;101773.84;10495369;28;20383;-74
2022/07/13 19:32:13;;;;;;;3.65;1.73;;;;;;;21.19;61.92;101781.34;10519679;28;20410;-74
2022/07/13 19:37:13;;;;;;;5.20;3.10;;;;;;;21.13;62.16;101783.91;10571824;28;20024;-74
2022/07/13 19:42:14;;;;;;;3.30;2.27;;;;;;;20.88;63.28;101801.16;10544722;28;20484;-74
2022/07/13 19:47:15;;;;;;;5.33;2.57;;;;;;;20.65;65.85;101806.84;10531195;28;20036;-74
2022/07/13 19:52:15;;;;;;;13.02;4.85;;;;;;;20.46;68.43;101816.22;10506431;28;20460;-73
2022/07/13 19:57:16;;;;;;;13.20;5.03;;;;;;;20.36;69.84;101815.09;10510506;28;20058;-73
2022/07/13 20:02:16;;;;;;;9.48;6.32;;;;;;;20.14;70.67;101824.38;10529999;28;20040;-75
2022/07/13 20:07:17;;;;;;;9.52;5.45;;;;;;;20.09;71.90;101825.16;10570771;28;20390;-77
2022/07/13 20:12:21;;;;;;;11.93;5.28;;;;;;;19.89;72.95;101829.97;10556369;28;20043;-74
2022/07/13 20:17:21;;;;;;;7.57;4.30;;;;;;;19.75;73.58;101844.63;10540797;28;20050;-74
2022/07/13 20:22:22;;;;;;;11.45;5.15;;;;;;;19.67;74.35;101848.00;10537420;28;20123;-74
2022/07/13 20:27:22;;;;;;;11.15;6.13;;;;;;;19.57;75.59;101864.53;10543532;28;20137;-74
2022/07/13 20:32:23;;;;;;;11.27;5.70;;;;;;;19.36;76.25;101868.44;10527418;28;20162;-74
2022/07/13 20:37:24;;;;;;;11.05;6.88;;;;;;;19.26;77.31;101863.72;10526248;28;20058;-74
2022/07/13 20:42:24;;;;;;;28.95;8.02;;;;;;;19.19;77.63;101857.38;10546020;28;20064;-73
2022/07/13 20:47:25;;;;;;;21.77;8.27;;;;;;;18.93;78.82;101859.22;10567557;28;20790;-74
2022/07/13 20:52:25;;;;;;;13.43;7.15;;;;;;;18.68;79.71;101868.22;10546792;28;20040;-74
2022/07/13 20:57:26;;;;;;;12.95;8.10;;;;;;;18.56;80.32;101885.56;10529548;28;20035;-75
2022/07/13 21:02:27;;;;;;;15.45;6.88;;;;;;;18.38;80.93;101885.84;10547773;28;20041;-75
2022/07/13 21:07:27;;;;;;;17.52;8.80;;;;;;;18.24;81.34;101888.09;10545698;28;20126;-74
2022/07/13 21:12:28;;;;;;;21.67;10.85;;;;;;;18.05;81.89;101886.56;10564962;28;20070;-73
2022/07/13 21:17:28;;;;;;;16.15;11.18;;;;;;;17.90;82.33;101887.81;10557486;28;20067;-74
2022/07/13 21:22:29;;;;;;;12.30;9.13;;;;;;;17.71;82.68;101899.56;10541798;28;20498;-74
2022/07/13 21:27:30;;;;;;;18.00;12.23;;;;;;;17.53;83.83;101891.84;10530510;28;20036;-74
2022/07/13 21:32:31;;;;;;;19.73;10.25;;;;;;;17.46;84.12;101893.41;10548244;28;20080;-74
2022/07/13 21:37:31;;;;;;;20.88;12.20;;;;;;;17.25;84.79;101904.09;10526499;28;20043;-74
2022/07/13 21:42:32;;;;;;;16.27;10.95;;;;;;;17.06;85.75;101906.91;10564944;28;20119;-74
2022/07/13 21:47:32;;;;;;;17.08;9.73;;;;;;;16.84;86.49;101896.38;10560169;28;20127;-73
2022/07/13 21:52:36;;;;;;;24.77;9.57;;;;;;;16.79;87.40;101892.66;10559770;28;20060;-74
2022/07/13 21:57:36;;;;;;;17.52;8.45;;;;;;;16.78;86.94;101898.78;10513555;28;20131;-74
2022/07/13 22:02:37;;;;;;;11.10;7.47;;;;;;;16.70;86.96;101922.28;10548472;28;20043;-74
2022/07/13 22:07:38;;;;;;;13.35;7.85;;;;;;;16.54;87.01;101914.56;10520258;28;20048;-74
2022/07/13 22:13:16;;;;;;;16.47;6.37;;;;;;;16.47;86.97;101920.47;10534105;28;20046;-74
2022/07/13 22:18:54;;;;;;;11.75;6.28;;;;;;;16.34;87.16;101916.44;10568094;28;20290;-74
2022/07/13 22:24:32;;;;;;;16.27;5.75;;;;;;;16.23;87.18;101923.91;10571292;28;20465;-74
2022/07/13 22:30:10;;;;;;;12.07;5.47;;;;;;;16.05;87.73;101917.00;10530381;28;20083;-73
2022/07/13 22:35:48;;;;;;;15.20;6.00;;;;;;;15.93;88.25;101900.66;10533040;28;20039;-73
2022/07/13 22:41:26;;;;;;;11.95;5.60;;;;;;;15.87;88.35;101903.97;10539993;28;20040;-74
2022/07/13 22:47:04;;;;;;;19.42;5.63;;;;;;;15.77;88.14;101899.09;10532286;28;20039;-73
2022/07/13 22:52:42;;;;;;;10.77;5.20;;;;;;;15.62;88.26;101899.31;10564962;28;20036;-74
2022/07/13 22:58:20;;;;;;;13.48;5.55;;;;;;;15.61;89.27;101901.06;10522914;28;20122;-74
2022/07/13 23:03:58;;;;;;;10.07;5.45;;;;;;;15.77;88.97;101899.97;10555158;28;20093;-74
2022/07/13 23:09:37;;;;;;;17.88;5.45;;;;;;;15.83;88.74;101899.34;10549046;28;20402;-74
2022/07/13 23:15:14;;;;;;;8.45;4.63;;;;;;;15.78;88.59;101880.66;10529922;28;20403;-74
2022/07/13 23:20:52;;;;;;;9.80;4.55;;;;;;;15.67;88.43;101895.13;10533702;28;20040;-74
2022/07/13 23:26:30;;;;;;;14.95;5.40;;;;;;;15.48;88.82;101914.56;10559337;28;20118;-74